Time;durP1;ratioP1;P1;durP2;ratioP2;P2;SDS_P1;SDS_P2;PMS_P1;PMS_P2;Temp;Humidity;BMP_temperature;BMP_pressure;BME280_temperature;BME280_humidity;BME280_pressure;Samples;Min_cycle;Max_cycle;Signal;HPM_P1;HPM_P2
2022/04/08 00:01:31;;;;;;;3.50;2.10;;;6.90;99.90;;;;;;503089;236;27453;-71
2022/04/08 00:03:32;;;;;;;6.37;1.83;;;6.80;99.90;;;;;;503088;236;27493;-71
2022/04/08 00:05:33;;;;;;;7.75;2.17;;;6.80;99.90;;;;;;503078;236;27455;-69
2022/04/08 00:07:34;;;;;;;2.53;1.85;;;6.70;99.90;;;;;;503068;236;27473;-70
2022/04/08 00:09:36;;;;;;;2.33;2.00;;;6.80;99.90;;;;;;503076;236;27961;-73
2022/04/08 00:11:37;;;;;;;4.70;2.03;;;6.70;99.90;;;;;;503072;236;27979;-70
2022/04/08 00:13:38;;;;;;;4.28;2.25;;;6.80;99.90;;;;;;503038;236;27480;-70
2022/04/08 00:15:39;;;;;;;4.35;1.87;;;6.80;99.90;;;;;;503080;236;27514;-70
2022/04/08 00:17:41;;;;;;;4.53;2.17;;;6.80;99.90;;;;;;503091;236;27472;-70
2022/04/08 00:19:42;;;;;;;5.93;1.90;;;6.70;99.90;;;;;;503061;236;27470;-71
2022/04/08 00:21:43;;;;;;;5.28;2.45;;;6.80;99.90;;;;;;503030;236;27542;-70
2022/04/08 00:23:45;;;;;;;6.90;2.60;;;6.80;99.90;;;;;;503030;236;28035;-70
2022/04/08 00:25:46;;;;;;;4.28;2.30;;;6.80;99.90;;;;;;503048;236;28684;-70
2022/04/08 00:27:47;;;;;;;5.90;2.28;;;6.80;99.90;;;;;;503085;236;27439;-70
2022/04/08 00:29:48;;;;;;;8.43;2.33;;;6.80;99.90;;;;;;503085;236;27488;-72
2022/04/08 00:31:59;;;;;;;9.63;2.10;;;6.70;99.90;;;;;;503046;236;27537;-70
2022/04/08 00:33:51;;;;;;;5.15;2.10;;;6.70;99.90;;;;;;502328;236;27497;-70
2022/04/08 00:35:52;;;;;;;5.35;2.00;;;6.70;99.90;;;;;;503100;236;27466;-73
2022/04/08 00:37:53;;;;;;;4.75;1.80;;;6.70;99.90;;;;;;503101;236;27985;-69
2022/04/08 00:39:55;;;;;;;7.30;2.10;;;6.60;99.90;;;;;;503066;236;27956;-70
2022/04/08 00:41:56;;;;;;;3.08;1.80;;;6.60;99.90;;;;;;503086;236;27428;-70
2022/04/08 00:43:57;;;;;;;3.17;2.10;;;6.60;99.90;;;;;;503090;236;27501;-70
2022/04/08 00:45:58;;;;;;;7.40;2.20;;;6.50;99.90;;;;;;503124;236;27520;-73
2022/04/08 00:48:06;;;;;;;2.95;2.00;;;6.50;99.90;;;;;;503098;236;27451;-70
2022/04/08 00:50:01;;;;;;;6.43;1.95;;;6.50;99.90;;;;;;502549;236;27472;-70
2022/04/08 00:52:02;;;;;;;4.80;2.03;;;6.50;99.90;;;;;;503070;236;28251;-70
2022/04/08 00:54:03;;;;;;;5.93;1.90;;;6.50;99.90;;;;;;503067;236;27981;-70
2022/04/08 00:56:05;;;;;;;4.32;1.85;;;6.40;99.90;;;;;;503100;236;27478;-73
2022/04/08 00:58:06;;;;;;;4.85;2.08;;;6.50;99.90;;;;;;503105;236;27438;-70
2022/04/08 01:00:10;;;;;;;4.05;1.90;;;6.40;99.90;;;;;;503078;236;27494;-70
2022/04/08 01:02:08;;;;;;;11.40;2.65;;;6.40;99.90;;;;;;502886;236;27426;-70
2022/04/08 01:04:10;;;;;;;5.03;2.12;;;6.50;99.90;;;;;;503069;236;27475;-70
2022/04/08 01:06:11;;;;;;;3.90;1.92;;;6.40;99.90;;;;;;503126;236;27934;-73
2022/04/08 01:08:14;;;;;;;3.60;2.70;;;6.40;99.90;;;;;;503088;236;27981;-70
2022/04/08 01:10:13;;;;;;;2.92;1.90;;;6.30;99.90;;;;;;502951;236;27483;-71
2022/04/08 01:12:15;;;;;;;5.87;2.10;;;6.30;99.90;;;;;;503092;236;27434;-70
2022/04/08 01:14:19;;;;;;;10.00;2.30;;;6.30;99.90;;;;;;503096;236;27554;-70
2022/04/08 01:16:19;;;;;;;3.08;2.20;;;6.30;99.90;;;;;;502893;236;27563;-70
2022/04/08 01:18:18;;;;;;;8.23;2.97;;;6.30;99.90;;;;;;502983;236;27517;-71
2022/04/08 01:20:20;;;;;;;3.28;2.22;;;6.20;99.90;;;;;;503090;236;27890;-70
2022/04/08 01:22:21;;;;;;;6.60;2.50;;;6.20;99.90;;;;;;503080;236;27981;-70
2022/04/08 01:24:22;;;;;;;3.35;1.85;;;6.20;99.90;;;;;;503051;236;27973;-70
2022/04/08 01:26:23;;;;;;;6.47;2.65;;;6.20;99.90;;;;;;503100;236;27496;-73
2022/04/08 01:28:26;;;;;;;5.62;2.03;;;6.20;99.90;;;;;;503098;236;27530;-70
2022/04/08 01:30:26;;;;;;;4.30;1.70;;;6.10;99.90;;;;;;503017;236;27512;-70
2022/04/08 01:32:27;;;;;;;5.30;2.15;;;6.10;99.90;;;;;;503082;236;27443;-70
2022/04/08 01:34:28;;;;;;;3.60;2.17;;;6.20;99.90;;;;;;503081;236;27494;-70
2022/04/08 01:36:30;;;;;;;6.87;2.92;;;6.10;99.90;;;;;;503112;236;27525;-73
2022/04/08 01:38:31;;;;;;;7.62;2.40;;;6.20;99.90;;;;;;503098;236;28047;-70
2022/04/08 01:40:33;;;;;;;6.87;2.40;;;6.20;99.90;;;;;;503087;236;28059;-70
2022/04/08 01:42:34;;;;;;;4.78;2.55;;;6.20;99.90;;;;;;503074;236;27515;-70
2022/04/08 01:44:35;;;;;;;5.50;2.30;;;6.20;99.90;;;;;;503095;236;27473;-70
2022/04/08 01:46:36;;;;;;;3.75;1.90;;;6.10;99.90;;;;;;503090;236;27486;-73
2022/04/08 01:48:37;;;;;;;7.45;2.20;;;6.20;99.90;;;;;;503106;236;27520;-70
2022/04/08 01:50:39;;;;;;;4.03;2.10;;;6.10;99.90;;;;;;503109;236;27473;-71
2022/04/08 01:52:40;;;;;;;6.82;2.22;;;6.10;99.90;;;;;;503092;236;27526;-70
2022/04/08 01:54:41;;;;;;;4.05;2.00;;;6.10;99.90;;;;;;503102;236;27984;-70
2022/04/08 01:56:42;;;;;;;7.87;2.50;;;6.00;99.90;;;;;;503131;236;28067;-71
2022/04/08 01:58:44;;;;;;;5.22;2.20;;;6.00;99.90;;;;;;503124;236;27528;-70
2022/04/08 02:00:45;;;;;;;4.95;2.10;;;5.90;99.90;;;;;;503133;236;27511;-71
2022/04/08 02:02:46;;;;;;;8.20;3.62;;;5.90;99.90;;;;;;503091;236;27559;-72
2022/04/08 02:04:47;;;;;;;6.32;2.67;;;5.90;99.90;;;;;;503079;236;27482;-72
2022/04/08 02:06:49;;;;;;;8.23;2.30;;;6.00;99.90;;;;;;503129;236;27814;-75
2022/04/08 02:08:50;;;;;;;4.50;2.12;;;5.90;99.90;;;;;;503092;236;27447;-72
2022/04/08 02:10:53;;;;;;;5.70;2.10;;;6.00;99.90;;;;;;503081;236;27937;-72
2022/04/08 02:12:52;;;;;;;7.05;2.53;;;5.90;99.90;;;;;;502931;236;27998;-70
2022/04/08 02:14:54;;;;;;;11.38;2.92;;;5.90;99.90;;;;;;503067;236;27917;-71
2022/04/08 02:16:55;;;;;;;6.72;2.20;;;5.80;99.90;;;;;;503090;236;27474;-72
2022/04/08 02:18:56;;;;;;;4.40;2.12;;;5.80;99.90;;;;;;503082;236;27528;-70
2022/04/08 02:20:57;;;;;;;6.43;2.30;;;5.80;99.90;;;;;;503044;236;27454;-70
2022/04/08 02:22:59;;;;;;;6.43;2.42;;;5.80;99.90;;;;;;503042;236;27477;-70
2022/04/08 02:25:01;;;;;;;9.35;2.40;;;5.90;99.90;;;;;;503022;236;27529;-70
2022/04/08 02:27:03;;;;;;;5.22;2.37;;;5.80;99.90;;;;;;502975;236;27541;-72
2022/04/08 02:29:02;;;;;;;3.90;2.30;;;5.70;99.90;;;;;;502920;236;28315;-70
2022/04/08 02:31:05;;;;;;;4.82;1.80;;;5.70;99.90;;;;;;503077;236;27985;-70
2022/04/08 02:33:05;;;;;;;4.50;2.10;;;5.70;99.90;;;;;;502995;236;28133;-73
2022/04/08 02:35:06;;;;;;;3.37;2.40;;;5.70;99.90;;;;;;503082;236;27481;-69
2022/04/08 02:37:07;;;;;;;6.32;3.37;;;5.60;99.90;;;;;;503067;236;27475;-70
2022/04/08 02:39:09;;;;;;;5.15;2.28;;;5.50;99.90;;;;;;503035;236;27434;-70
2022/04/08 02:41:10;;;;;;;8.55;2.12;;;5.50;99.90;;;;;;503057;236;27459;-70
2022/04/08 02:43:11;;;;;;;3.80;1.92;;;5.60;99.90;;;;;;503072;236;27853;-73
2022/04/08 02:45:12;;;;;;;3.47;1.98;;;5.60;99.90;;;;;;503079;236;27481;-70
2022/04/08 02:47:14;;;;;;;7.40;2.60;;;5.60;99.90;;;;;;503082;236;27492;-70
2022/04/08 02:49:15;;;;;;;4.15;2.53;;;5.60;99.90;;;;;;503057;236;27922;-70
2022/04/08 02:51:16;;;;;;;5.32;2.60;;;5.50;99.90;;;;;;503060;236;28052;-70
2022/04/08 02:53:17;;;;;;;5.70;2.50;;;5.40;99.90;;;;;;503050;236;28041;-70
2022/04/08 02:55:19;;;;;;;3.00;2.17;;;5.30;99.90;;;;;;503071;236;27452;-70
2022/04/08 02:57:20;;;;;;;2.10;1.90;;;5.40;99.90;;;;;;503092;236;27481;-70
2022/04/08 02:59:21;;;;;;;5.53;2.58;;;5.40;99.90;;;;;;503039;236;27436;-70
2022/04/08 03:01:22;;;;;;;5.60;3.00;;;5.40;99.90;;;;;;503056;236;27482;-70
2022/04/08 03:03:26;;;;;;;6.15;2.28;;;5.30;99.90;;;;;;503071;236;27952;-73
2022/04/08 03:05:25;;;;;;;6.60;2.60;;;5.40;99.90;;;;;;502922;236;27509;-70
2022/04/08 03:07:26;;;;;;;4.72;2.60;;;5.30;99.90;;;;;;503043;236;27568;-71
2022/04/08 03:09:27;;;;;;;5.03;2.78;;;5.30;99.90;;;;;;503026;236;27906;-70
2022/04/08 03:11:29;;;;;;;4.75;2.30;;;5.30;99.90;;;;;;503054;236;27989;-70
2022/04/08 03:13:30;;;;;;;7.05;2.72;;;5.30;99.90;;;;;;503101;236;28050;-71
2022/04/08 03:15:31;;;;;;;5.35;1.95;;;5.20;99.90;;;;;;503061;236;28957;-70
2022/04/08 03:17:32;;;;;;;7.50;2.30;;;5.20;99.90;;;;;;503065;236;27515;-70
2022/04/08 03:19:34;;;;;;;3.00;2.10;;;5.20;99.90;;;;;;503062;236;27452;-70
2022/04/08 03:21:35;;;;;;;5.57;3.05;;;5.20;99.90;;;;;;503036;236;27550;-70
2022/04/08 03:23:39;;;;;;;3.62;2.25;;;5.20;99.90;;;;;;503081;236;27485;-73
2022/04/08 03:25:38;;;;;;;8.00;2.60;;;5.20;99.90;;;;;;502856;236;27449;-70
2022/04/08 03:27:39;;;;;;;8.02;2.50;;;5.10;99.90;;;;;;503057;236;27581;-71
2022/04/08 03:29:40;;;;;;;5.18;2.40;;;5.20;99.90;;;;;;503063;236;27425;-70
2022/04/08 03:31:41;;;;;;;7.87;2.20;;;5.20;99.90;;;;;;503043;236;27475;-70
2022/04/08 03:33:42;;;;;;;3.83;2.10;;;5.20;99.90;;;;;;503119;236;27937;-72
2022/04/08 03:35:44;;;;;;;7.60;2.47;;;5.20;99.90;;;;;;503080;236;27939;-69
2022/04/08 03:37:45;;;;;;;5.62;2.40;;;5.20;99.90;;;;;;503089;236;27952;-71
2022/04/08 03:39:47;;;;;;;3.83;2.10;;;5.30;99.90;;;;;;503100;236;27431;-70
2022/04/08 03:41:47;;;;;;;8.43;2.45;;;5.30;99.90;;;;;;503051;236;27466;-70
2022/04/08 03:43:49;;;;;;;5.32;2.40;;;5.40;99.90;;;;;;503087;236;27501;-73
2022/04/08 03:45:50;;;;;;;5.07;2.35;;;5.40;99.90;;;;;;503067;236;27443;-70
2022/04/08 03:47:51;;;;;;;6.80;2.20;;;5.40;99.90;;;;;;503057;236;27477;-70
2022/04/08 03:49:53;;;;;;;2.85;1.92;;;5.40;99.90;;;;;;503050;236;27470;-70
2022/04/08 03:51:54;;;;;;;4.57;2.15;;;5.40;99.90;;;;;;503033;236;27485;-70
2022/04/08 03:53:55;;;;;;;5.57;2.30;;;5.40;99.90;;;;;;503043;236;27998;-73
2022/04/08 03:55:56;;;;;;;10.65;2.45;;;5.40;99.90;;;;;;503077;236;27898;-70
2022/04/08 03:57:58;;;;;;;3.55;2.30;;;5.40;99.90;;;;;;503055;236;28059;-70
2022/04/08 03:59:59;;;;;;;3.90;1.85;;;5.40;99.90;;;;;;503063;236;27426;-70
2022/04/08 04:02:01;;;;;;;3.70;2.25;;;5.40;99.90;;;;;;503067;236;27548;-70
2022/04/08 04:04:01;;;;;;;1.98;1.83;;;5.50;99.90;;;;;;503006;236;27497;-70
2022/04/08 04:06:03;;;;;;;4.30;2.00;;;5.50;99.90;;;;;;503050;236;27458;-70
2022/04/08 04:08:04;;;;;;;5.62;2.33;;;5.50;99.90;;;;;;502941;236;27477;-71
2022/04/08 04:10:05;;;;;;;4.90;2.30;;;5.50;99.90;;;;;;503051;236;27529;-70
2022/04/08 04:12:07;;;;;;;5.65;2.62;;;5.40;99.90;;;;;;503045;236;27505;-71
2022/04/08 04:14:08;;;;;;;4.53;2.00;;;5.40;99.90;;;;;;503057;236;28057;-73
2022/04/08 04:16:09;;;;;;;4.30;2.03;;;5.40;99.90;;;;;;503080;236;27906;-70
2022/04/08 04:18:10;;;;;;;4.75;2.03;;;5.40;99.90;;;;;;503062;236;27587;-71
2022/04/08 04:20:11;;;;;;;2.67;1.90;;;5.30;99.90;;;;;;503049;236;27442;-70
2022/04/08 04:22:13;;;;;;;9.73;2.70;;;5.30;99.90;;;;;;503030;236;27583;-70
2022/04/08 04:24:14;;;;;;;2.55;2.00;;;5.30;99.90;;;;;;503055;236;27588;-73
2022/04/08 04:26:15;;;;;;;5.78;2.40;;;5.30;99.90;;;;;;503040;236;27907;-70
2022/04/08 04:28:16;;;;;;;6.90;2.37;;;5.30;99.90;;;;;;503034;236;27508;-70
2022/04/08 04:30:18;;;;;;;5.12;2.25;;;5.30;99.90;;;;;;503034;236;27454;-69
2022/04/08 04:32:19;;;;;;;4.65;2.67;;;5.20;99.90;;;;;;503066;236;27918;-70
2022/04/08 04:34:20;;;;;;;8.77;2.45;;;5.20;99.90;;;;;;503054;236;27964;-72
2022/04/08 04:36:21;;;;;;;4.90;2.40;;;5.20;99.90;;;;;;503046;236;27924;-70
2022/04/08 04:38:23;;;;;;;4.25;2.12;;;5.20;99.90;;;;;;503055;236;27560;-70
2022/04/08 04:40:25;;;;;;;4.20;1.98;;;5.20;99.90;;;;;;503055;236;27475;-70
2022/04/08 04:42:27;;;;;;;3.97;2.30;;;5.20;99.90;;;;;;502995;236;27454;-69
2022/04/08 04:44:27;;;;;;;2.80;1.90;;;5.20;99.90;;;;;;502883;236;27585;-72
2022/04/08 04:46:28;;;;;;;4.60;1.80;;;5.20;99.90;;;;;;503046;236;27456;-69
2022/04/08 04:48:29;;;;;;;2.92;2.62;;;5.10;99.90;;;;;;503042;236;27487;-70
2022/04/08 04:50:30;;;;;;;2.60;2.42;;;5.00;99.90;;;;;;503059;236;27494;-70
2022/04/08 04:52:31;;;;;;;2.58;2.10;;;5.00;99.90;;;;;;503063;236;27890;-70
2022/04/08 04:54:33;;;;;;;2.30;2.10;;;5.00;99.90;;;;;;503053;236;29114;-71
2022/04/08 04:56:34;;;;;;;2.50;2.30;;;5.00;99.90;;;;;;503069;236;27535;-70
2022/04/08 04:58:35;;;;;;;2.20;2.10;;;5.00;99.90;;;;;;503044;236;27480;-70
2022/04/08 05:00:36;;;;;;;3.70;2.20;;;5.10;99.90;;;;;;503079;236;27467;-70
2022/04/08 05:02:38;;;;;;;3.67;2.60;;;5.10;99.90;;;;;;503092;236;27461;-70
2022/04/08 05:04:39;;;;;;;4.53;2.62;;;5.10;99.90;;;;;;503073;236;27500;-70
2022/04/08 05:06:40;;;;;;;4.60;2.25;;;5.10;99.90;;;;;;503092;236;27517;-70
2022/04/08 05:08:41;;;;;;;2.42;2.22;;;5.20;99.90;;;;;;503087;236;27571;-70
2022/04/08 05:10:43;;;;;;;6.43;2.80;;;5.20;99.90;;;;;;503103;236;28000;-73
2022/04/08 05:12:44;;;;;;;4.45;3.00;;;5.30;99.90;;;;;;503091;236;28010;-70
2022/04/08 05:14:45;;;;;;;3.47;2.12;;;5.30;99.90;;;;;;503085;236;27968;-71
2022/04/08 05:16:46;;;;;;;6.82;1.95;;;5.40;99.90;;;;;;503085;236;27579;-70
2022/04/08 05:18:48;;;;;;;3.53;2.40;;;5.40;99.90;;;;;;503060;236;27514;-71
2022/04/08 05:20:52;;;;;;;6.28;2.47;;;5.40;99.90;;;;;;503067;236;27585;-73
2022/04/08 05:22:50;;;;;;;4.90;2.20;;;5.40;99.90;;;;;;502851;236;27443;-70
2022/04/08 05:24:51;;;;;;;2.50;2.30;;;5.40;99.90;;;;;;503072;236;27470;-71
2022/04/08 05:26:53;;;;;;;3.83;2.58;;;5.50;99.90;;;;;;503052;236;28365;-71
2022/04/08 05:28:54;;;;;;;2.85;2.20;;;5.50;99.90;;;;;;503070;236;28119;-71
2022/04/08 05:30:55;;;;;;;2.22;2.03;;;5.50;99.90;;;;;;503070;236;27505;-73
2022/04/08 05:32:57;;;;;;;3.20;2.20;;;5.50;99.90;;;;;;503065;236;27442;-70
2022/04/08 05:34:58;;;;;;;4.78;2.53;;;5.50;99.90;;;;;;503025;236;27521;-71
2022/04/08 05:36:59;;;;;;;4.10;2.10;;;5.50;99.90;;;;;;503064;236;27442;-71
2022/04/08 05:39:00;;;;;;;3.33;1.90;;;5.50;99.90;;;;;;503071;236;27536;-71
2022/04/08 05:41:02;;;;;;;2.90;2.37;;;5.50;99.90;;;;;;503082;236;27478;-70
2022/04/08 05:43:03;;;;;;;3.60;2.30;;;5.60;99.90;;;;;;503034;236;27962;-70
2022/04/08 05:45:04;;;;;;;3.95;2.75;;;5.60;99.90;;;;;;503055;236;27997;-70
2022/04/08 05:47:05;;;;;;;4.37;2.70;;;5.60;99.90;;;;;;503058;236;28067;-70
2022/04/08 05:49:07;;;;;;;2.75;1.90;;;5.60;99.90;;;;;;503077;236;27447;-70
2022/04/08 05:51:08;;;;;;;4.22;2.22;;;5.60;99.90;;;;;;503071;236;27477;-74
2022/04/08 05:53:09;;;;;;;3.45;2.00;;;5.70;99.90;;;;;;503069;236;27438;-70
2022/04/08 05:55:10;;;;;;;4.45;2.10;;;5.70;99.90;;;;;;503058;236;27482;-71
2022/04/08 05:57:12;;;;;;;4.60;2.10;;;5.80;99.90;;;;;;503093;236;27521;-69
2022/04/08 05:59:13;;;;;;;4.82;2.10;;;5.80;99.90;;;;;;503105;236;28337;-70
2022/04/08 06:01:14;;;;;;;6.10;2.15;;;5.80;99.90;;;;;;503100;236;28002;-72
2022/04/08 06:03:15;;;;;;;3.08;2.15;;;5.80;99.90;;;;;;503083;236;27435;-70
2022/04/08 06:05:18;;;;;;;4.35;2.42;;;5.90;99.90;;;;;;503055;236;27561;-70
2022/04/08 06:07:18;;;;;;;5.95;1.90;;;5.90;99.90;;;;;;502963;236;27454;-69
2022/04/08 06:09:19;;;;;;;3.45;2.28;;;6.00;99.90;;;;;;503098;236;27451;-71
2022/04/08 06:11:20;;;;;;;2.05;1.90;;;6.00;99.90;;;;;;503093;236;27488;-72
2022/04/08 06:13:24;;;;;;;3.80;1.90;;;6.00;99.90;;;;;;503115;236;27446;-70
2022/04/08 06:15:23;;;;;;;3.62;2.10;;;6.10;99.90;;;;;;502859;236;28112;-72
2022/04/08 06:17:24;;;;;;;5.12;2.00;;;6.10;99.90;;;;;;503095;236;27524;-71
2022/04/08 06:19:25;;;;;;;7.90;2.53;;;6.10;99.90;;;;;;503091;236;27455;-70
2022/04/08 06:21:27;;;;;;;6.07;2.08;;;6.20;99.90;;;;;;503091;236;27592;-73
2022/04/08 06:23:28;;;;;;;6.72;2.42;;;6.10;99.90;;;;;;503084;236;27445;-70
2022/04/08 06:25:29;;;;;;;6.72;2.05;;;6.10;99.90;;;;;;503095;236;27478;-71
2022/04/08 06:27:30;;;;;;;5.85;2.40;;;6.10;99.90;;;;;;503091;236;27954;-70
2022/04/08 06:29:32;;;;;;;2.90;2.35;;;6.10;99.90;;;;;;503089;236;27955;-70
2022/04/08 06:31:33;;;;;;;5.70;2.25;;;6.10;99.90;;;;;;503142;236;27581;-73
2022/04/08 06:33:34;;;;;;;3.85;2.08;;;6.10;99.90;;;;;;503103;236;27515;-71
2022/04/08 06:35:35;;;;;;;4.53;2.58;;;6.10;99.90;;;;;;503125;236;27485;-71
2022/04/08 06:37:37;;;;;;;3.62;2.22;;;6.20;99.90;;;;;;503147;236;27435;-70
2022/04/08 06:39:38;;;;;;;6.10;2.62;;;6.20;99.90;;;;;;503113;236;27474;-71
2022/04/08 06:41:39;;;;;;;4.70;2.23;;;6.20;99.90;;;;;;503145;236;27973;-72
2022/04/08 06:43:40;;;;;;;3.50;2.40;;;6.20;99.90;;;;;;503112;236;29295;-70
2022/04/08 06:45:42;;;;;;;2.83;2.00;;;6.20;99.90;;;;;;503118;236;27477;-70
2022/04/08 06:47:43;;;;;;;1.87;1.77;;;6.30;99.90;;;;;;503068;236;27573;-70
2022/04/08 06:49:46;;;;;;;4.25;2.10;;;6.40;99.90;;;;;;503136;236;27469;-70
2022/04/08 06:51:46;;;;;;;2.45;2.25;;;6.40;99.90;;;;;;502974;236;27493;-71
2022/04/08 06:53:47;;;;;;;5.73;2.23;;;6.50;99.90;;;;;;503107;236;27444;-70
2022/04/08 06:55:48;;;;;;;4.10;2.45;;;6.50;99.90;;;;;;503079;236;28802;-70
2022/04/08 06:57:49;;;;;;;3.33;1.90;;;6.60;99.90;;;;;;503108;236;28027;-70
2022/04/08 06:59:51;;;;;;;3.40;2.12;;;6.60;99.90;;;;;;503117;236;29214;-70
2022/04/08 07:01:52;;;;;;;5.55;2.35;;;6.70;99.90;;;;;;503096;236;27483;-71
2022/04/08 07:03:53;;;;;;;4.93;2.72;;;6.70;99.90;;;;;;503082;236;27586;-70
2022/04/08 07:05:54;;;;;;;5.93;2.80;;;6.80;99.90;;;;;;503104;236;27501;-70
2022/04/08 07:07:56;;;;;;;4.67;2.20;;;6.90;99.90;;;;;;503111;236;28341;-73
2022/04/08 07:09:59;;;;;;;3.77;2.30;;;6.90;99.90;;;;;;503084;236;28468;-70
2022/04/08 07:12:01;;;;;;;3.50;2.70;;;7.00;99.90;;;;;;503123;236;27900;-70
2022/04/08 07:14:02;;;;;;;3.13;2.20;;;7.00;99.90;;;;;;503102;236;28434;-71
2022/04/08 07:16:03;;;;;;;2.97;2.30;;;7.10;99.90;;;;;;503080;236;29372;-70
2022/04/08 07:18:05;;;;;;;7.73;2.00;;;7.00;99.90;;;;;;503059;236;28439;-70
2022/04/08 07:20:06;;;;;;;4.87;2.50;;;7.10;99.90;;;;;;503114;236;28285;-73
2022/04/08 07:22:07;;;;;;;6.50;2.63;;;7.10;99.90;;;;;;503112;236;28573;-70
2022/04/08 07:24:08;;;;;;;6.50;2.93;;;7.10;99.90;;;;;;503107;236;27722;-71
2022/04/08 07:26:09;;;;;;;3.47;2.33;;;7.20;99.90;;;;;;503089;236;27790;-71
2022/04/08 07:28:11;;;;;;;5.07;2.23;;;7.30;99.90;;;;;;503063;236;28054;-71
2022/04/08 07:30:12;;;;;;;7.53;2.00;;;7.30;99.90;;;;;;503117;236;27866;-70
2022/04/08 07:32:20;;;;;;;12.43;2.50;;;7.30;99.90;;;;;;503087;236;27913;-71
2022/04/08 07:34:14;;;;;;;5.33;2.20;;;7.30;99.90;;;;;;502487;236;27955;-71
2022/04/08 07:36:16;;;;;;;4.70;2.10;;;7.40;99.90;;;;;;503090;236;27571;-70
2022/04/08 07:38:18;;;;;;;6.57;2.40;;;7.40;99.90;;;;;;503073;236;27943;-70
2022/04/08 07:40:19;;;;;;;2.37;1.80;;;7.40;99.90;;;;;;503084;236;28169;-73
2022/04/08 07:42:19;;;;;;;5.73;2.07;;;7.50;99.90;;;;;;503100;236;27808;-71
2022/04/08 07:44:21;;;;;;;3.30;2.10;;;7.50;99.90;;;;;;503092;236;27590;-70
2022/04/08 07:46:22;;;;;;;7.43;2.17;;;7.50;99.90;;;;;;503088;236;27903;-70
2022/04/08 07:48:23;;;;;;;2.50;1.70;;;7.60;99.90;;;;;;503097;236;27950;-70
2022/04/08 07:50:24;;;;;;;3.53;2.13;;;7.50;99.90;;;;;;503102;236;28477;-72
2022/04/08 07:52:26;;;;;;;7.10;1.90;;;7.50;99.90;;;;;;503099;236;28255;-70
2022/04/08 07:54:27;;;;;;;9.03;2.07;;;7.40;99.90;;;;;;503075;236;28542;-71
2022/04/08 07:56:29;;;;;;;4.67;1.90;;;7.40;99.90;;;;;;503071;236;28328;-70
2022/04/08 07:58:29;;;;;;;3.80;2.23;;;7.30;99.90;;;;;;502996;236;28485;-70
2022/04/08 08:00:32;;;;;;;3.27;2.10;;;7.20;99.90;;;;;;503108;236;27945;-74
2022/04/08 08:02:32;;;;;;;4.50;2.43;;;7.30;99.90;;;;;;503036;236;28023;-70
2022/04/08 08:04:33;;;;;;;2.90;1.87;;;7.30;99.90;;;;;;503095;236;28282;-71
2022/04/08 08:06:34;;;;;;;5.70;1.90;;;7.20;99.90;;;;;;503072;236;27899;-70
2022/04/08 08:08:36;;;;;;;6.17;1.90;;;7.20;99.90;;;;;;503086;236;27808;-70
2022/04/08 08:10:38;;;;;;;4.13;2.37;;;7.10;99.90;;;;;;503062;236;27938;-71
2022/04/08 08:12:38;;;;;;;3.23;2.10;;;7.00;99.90;;;;;;502997;236;28020;-70
2022/04/08 08:14:39;;;;;;;4.10;2.17;;;7.00;99.90;;;;;;503081;236;28009;-72
2022/04/08 08:16:41;;;;;;;6.43;2.20;;;7.10;99.90;;;;;;503058;236;28243;-70
2022/04/08 08:18:42;;;;;;;2.20;1.70;;;7.10;99.90;;;;;;503072;236;27914;-70
2022/04/08 08:20:43;;;;;;;4.00;1.80;;;7.00;99.90;;;;;;503080;236;28383;-73
2022/04/08 08:22:44;;;;;;;5.17;1.90;;;6.90;99.90;;;;;;503096;236;27983;-70
2022/04/08 08:24:46;;;;;;;4.40;1.80;;;6.70;99.90;;;;;;503074;236;27840;-71
2022/04/08 08:26:47;;;;;;;3.83;2.30;;;6.80;99.90;;;;;;503087;236;27548;-70
2022/04/08 08:28:48;;;;;;;8.93;2.40;;;6.80;99.90;;;;;;503073;236;28432;-70
2022/04/08 08:30:49;;;;;;;6.60;2.50;;;6.90;99.90;;;;;;503099;236;28257;-73
2022/04/08 08:32:51;;;;;;;2.23;2.03;;;6.90;99.90;;;;;;503098;236;28132;-71
2022/04/08 08:34:52;;;;;;;2.03;1.83;;;6.90;99.90;;;;;;503097;236;28428;-71
2022/04/08 08:36:57;;;;;;;7.00;2.50;;;6.90;99.90;;;;;;502905;236;27446;-70
2022/04/08 08:38:54;;;;;;;2.67;1.70;;;7.00;99.90;;;;;;502777;236;28001;-70
2022/04/08 08:40:56;;;;;;;2.20;2.00;;;6.90;99.90;;;;;;503099;236;28832;-74
2022/04/08 08:42:57;;;;;;;2.73;2.30;;;6.90;99.90;;;;;;503112;236;28772;-70
2022/04/08 08:44:58;;;;;;;3.00;1.90;;;6.90;99.90;;;;;;503102;236;28054;-70
2022/04/08 08:46:59;;;;;;;4.23;1.70;;;6.90;99.90;;;;;;503094;236;28123;-70
2022/04/08 08:49:01;;;;;;;4.33;1.80;;;6.90;99.90;;;;;;503116;236;28061;-70
2022/04/08 08:51:02;;;;;;;1.77;1.67;;;6.80;99.90;;;;;;503128;236;28924;-73
2022/04/08 08:53:03;;;;;;;3.17;1.83;;;6.80;99.90;;;;;;503130;236;28011;-71
2022/04/08 08:55:04;;;;;;;2.30;2.10;;;6.80;99.90;;;;;;503124;236;28875;-70
2022/04/08 08:57:08;;;;;;;5.37;2.37;;;6.80;99.90;;;;;;503102;236;27647;-70
2022/04/08 08:59:07;;;;;;;2.30;1.90;;;6.60;99.90;;;;;;502927;236;28639;-71
2022/04/08 09:01:08;;;;;;;3.90;2.13;;;6.60;99.90;;;;;;503109;236;28818;-72
2022/04/08 09:03:09;;;;;;;1.87;1.70;;;6.60;99.90;;;;;;503100;236;28560;-70
2022/04/08 09:05:11;;;;;;;1.90;1.80;;;6.50;99.90;;;;;;503072;236;27482;-71
2022/04/08 09:07:12;;;;;;;1.87;1.75;;;6.50;99.90;;;;;;503079;236;28270;-70
2022/04/08 09:09:13;;;;;;;2.90;1.97;;;6.50;99.90;;;;;;503077;236;27473;-70
2022/04/08 09:11:14;;;;;;;2.10;1.50;;;6.40;99.90;;;;;;503084;236;28068;-74
2022/04/08 09:13:16;;;;;;;2.70;1.83;;;6.40;99.90;;;;;;503081;236;28782;-70
2022/04/08 09:15:17;;;;;;;2.77;1.97;;;6.40;99.90;;;;;;503085;236;27802;-71
2022/04/08 09:17:18;;;;;;;1.90;1.50;;;6.50;99.90;;;;;;503081;236;28235;-69
2022/04/08 09:19:19;;;;;;;4.50;1.83;;;6.50;99.90;;;;;;503062;236;28279;-70
2022/04/08 09:21:21;;;;;;;1.73;1.63;;;6.40;99.90;;;;;;503121;236;28925;-73
2022/04/08 09:23:22;;;;;;;3.10;2.00;;;6.40;99.90;;;;;;503114;236;27920;-71
2022/04/08 09:25:23;;;;;;;1.98;1.87;;;6.30;99.90;;;;;;503107;236;27981;-71
2022/04/08 09:27:24;;;;;;;2.05;1.95;;;6.20;99.90;;;;;;503102;236;27477;-70
2022/04/08 09:29:27;;;;;;;2.55;1.80;;;6.20;99.90;;;;;;503064;236;27500;-70
2022/04/08 09:31:27;;;;;;;1.67;1.65;;;6.10;99.90;;;;;;503014;236;27486;-70
2022/04/08 09:33:28;;;;;;;1.90;1.80;;;5.90;99.90;;;;;;503054;236;27520;-70
2022/04/08 09:35:30;;;;;;;1.90;1.67;;;6.00;99.90;;;;;;503117;236;28798;-71
2022/04/08 09:37:31;;;;;;;2.28;1.80;;;6.00;99.90;;;;;;503083;236;28045;-70
2022/04/08 09:39:32;;;;;;;1.85;1.55;;;6.00;99.90;;;;;;503094;236;27953;-70
2022/04/08 09:41:33;;;;;;;2.10;1.90;;;6.00;99.90;;;;;;503081;236;27861;-70
2022/04/08 09:43:35;;;;;;;1.70;1.60;;;6.00;99.90;;;;;;503087;236;27563;-70
2022/04/08 09:45:38;;;;;;;1.80;1.70;;;6.00;99.90;;;;;;503172;236;27557;-71
2022/04/08 09:47:37;;;;;;;2.25;1.80;;;6.00;99.90;;;;;;502949;236;27458;-70
2022/04/08 09:49:38;;;;;;;1.83;1.73;;;6.00;99.90;;;;;;503078;236;27494;-70
2022/04/08 09:51:40;;;;;;;2.25;1.67;;;6.00;99.90;;;;;;503084;236;28074;-70
2022/04/08 09:53:41;;;;;;;2.00;1.90;;;6.00;99.90;;;;;;503108;236;27914;-70
2022/04/08 09:55:42;;;;;;;3.65;1.90;;;6.00;99.90;;;;;;503120;236;27485;-71
2022/04/08 09:57:44;;;;;;;3.00;2.00;;;5.90;99.90;;;;;;503072;236;27450;-70
2022/04/08 09:59:45;;;;;;;2.10;2.00;;;5.90;99.90;;;;;;503044;236;27593;-70
2022/04/08 10:01:47;;;;;;;1.77;1.67;;;5.90;99.90;;;;;;503117;236;27591;-72
2022/04/08 10:03:47;;;;;;;2.00;1.60;;;5.80;99.90;;;;;;503009;236;27454;-69
2022/04/08 10:05:48;;;;;;;1.60;1.50;;;5.70;99.90;;;;;;503056;236;27971;-69
2022/04/08 10:07:52;;;;;;;1.42;1.40;;;5.70;99.90;;;;;;503068;236;27893;-70
2022/04/08 10:09:51;;;;;;;1.62;1.52;;;5.60;99.90;;;;;;502941;236;27505;-70
2022/04/08 10:11:54;;;;;;;1.50;1.40;;;5.60;99.90;;;;;;503131;236;27574;-73
2022/04/08 10:13:53;;;;;;;2.15;1.60;;;5.60;99.90;;;;;;502982;236;27520;-70
2022/04/08 10:15:55;;;;;;;1.50;1.40;;;5.60;99.90;;;;;;503108;236;27482;-71
2022/04/08 10:17:56;;;;;;;1.75;1.30;;;5.60;99.90;;;;;;503071;236;27516;-70
2022/04/08 10:19:57;;;;;;;1.55;1.45;;;5.50;99.90;;;;;;503087;236;28009;-70
2022/04/08 10:22:00;;;;;;;1.40;1.40;;;5.50;99.90;;;;;;503109;236;27972;-73
2022/04/08 10:24:00;;;;;;;1.50;1.40;;;5.50;99.90;;;;;;502976;236;27638;-70
2022/04/08 10:26:02;;;;;;;1.40;1.30;;;5.50;99.90;;;;;;503108;236;27540;-71
2022/04/08 10:28:02;;;;;;;1.30;1.30;;;5.50;99.90;;;;;;502967;236;27441;-70
2022/04/08 10:30:03;;;;;;;1.40;1.35;;;5.50;99.90;;;;;;503103;236;27571;-70
2022/04/08 10:32:05;;;;;;;1.60;1.50;;;5.50;99.90;;;;;;503114;236;27481;-72
2022/04/08 10:34:06;;;;;;;1.48;1.40;;;5.40;99.90;;;;;;503102;236;27894;-70
2022/04/08 10:36:07;;;;;;;1.30;1.30;;;5.40;99.90;;;;;;503077;236;27970;-70
2022/04/08 10:38:09;;;;;;;1.30;1.20;;;5.40;99.90;;;;;;503095;236;27486;-70
2022/04/08 10:40:10;;;;;;;1.23;1.23;;;5.40;99.90;;;;;;503093;236;27537;-70